sensor_id;sensor_type;location;lat;lon;timestamp;temperature;humidity
33827;DHT22;20128;45.582;5.298;2023-04-15T00:00:15;13.40;80.00
33827;DHT22;20128;45.582;5.298;2023-04-15T00:02:42;13.30;80.30
33827;DHT22;20128;45.582;5.298;2023-04-15T00:05:08;13.30;80.90
33827;DHT22;20128;45.582;5.298;2023-04-15T00:07:34;13.40;81.30
33827;DHT22;20128;45.582;5.298;2023-04-15T00:10:00;13.50;81.20
33827;DHT22;20128;45.582;5.298;2023-04-15T00:12:27;13.50;81.00
33827;DHT22;20128;45.582;5.298;2023-04-15T00:14:53;13.50;81.00
33827;DHT22;20128;45.582;5.298;2023-04-15T00:17:20;13.50;81.20
33827;DHT22;20128;45.582;5.298;2023-04-15T00:19:46;13.60;81.10
33827;DHT22;20128;45.582;5.298;2023-04-15T00:22:12;13.60;81.30
33827;DHT22;20128;45.582;5.298;2023-04-15T00:24:38;13.50;81.30
33827;DHT22;20128;45.582;5.298;2023-04-15T00:27:03;13.60;81.20
33827;DHT22;20128;45.582;5.298;2023-04-15T00:29:30;13.60;81.20
33827;DHT22;20128;45.582;5.298;2023-04-15T00:31:56;13.50;80.70
33827;DHT22;20128;45.582;5.298;2023-04-15T00:34:22;13.40;81.50
33827;DHT22;20128;45.582;5.298;2023-04-15T00:36:49;13.50;81.80
33827;DHT22;20128;45.582;5.298;2023-04-15T00:39:15;13.60;81.70
33827;DHT22;20128;45.582;5.298;2023-04-15T00:41:44;13.60;81.70
33827;DHT22;20128;45.582;5.298;2023-04-15T00:44:10;13.60;81.50
33827;DHT22;20128;45.582;5.298;2023-04-15T00:46:36;13.60;80.90
33827;DHT22;20128;45.582;5.298;2023-04-15T00:49:06;13.50;81.10
33827;DHT22;20128;45.582;5.298;2023-04-15T00:51:33;13.50;81.00
33827;DHT22;20128;45.582;5.298;2023-04-15T00:54:04;13.50;80.60
33827;DHT22;20128;45.582;5.298;2023-04-15T00:56:30;13.30;79.70
33827;DHT22;20128;45.582;5.298;2023-04-15T00:58:59;13.20;79.80
33827;DHT22;20128;45.582;5.298;2023-04-15T01:01:27;13.10;79.90
33827;DHT22;20128;45.582;5.298;2023-04-15T01:03:56;12.90;80.10
33827;DHT22;20128;45.582;5.298;2023-04-15T01:06:23;12.70;80.50
33827;DHT22;20128;45.582;5.298;2023-04-15T01:08:48;12.60;81.30
33827;DHT22;20128;45.582;5.298;2023-04-15T01:11:15;12.70;81.70
33827;DHT22;20128;45.582;5.298;2023-04-15T01:13:41;12.70;81.70
33827;DHT22;20128;45.582;5.298;2023-04-15T01:16:08;12.70;82.00
33827;DHT22;20128;45.582;5.298;2023-04-15T01:18:35;12.80;82.50
33827;DHT22;20128;45.582;5.298;2023-04-15T01:21:02;12.90;82.70
33827;DHT22;20128;45.582;5.298;2023-04-15T01:23:29;13.00;82.30
33827;DHT22;20128;45.582;5.298;2023-04-15T01:25:55;13.00;82.10
33827;DHT22;20128;45.582;5.298;2023-04-15T01:28:21;13.00;82.40
33827;DHT22;20128;45.582;5.298;2023-04-15T01:30:47;13.00;82.50
33827;DHT22;20128;45.582;5.298;2023-04-15T01:33:13;13.00;82.80
33827;DHT22;20128;45.582;5.298;2023-04-15T01:35:39;13.10;83.30
33827;DHT22;20128;45.582;5.298;2023-04-15T01:38:08;13.10;83.70
33827;DHT22;20128;45.582;5.298;2023-04-15T01:40:34;13.20;83.90
33827;DHT22;20128;45.582;5.298;2023-04-15T01:43:01;13.30;83.70
33827;DHT22;20128;45.582;5.298;2023-04-15T01:45:27;13.30;83.30
33827;DHT22;20128;45.582;5.298;2023-04-15T01:47:53;13.30;83.20
33827;DHT22;20128;45.582;5.298;2023-04-15T01:50:19;13.30;83.00
33827;DHT22;20128;45.582;5.298;2023-04-15T01:52:46;13.10;82.40
33827;DHT22;20128;45.582;5.298;2023-04-15T01:55:13;12.90;82.50
33827;DHT22;20128;45.582;5.298;2023-04-15T01:57:39;12.80;83.00
33827;DHT22;20128;45.582;5.298;2023-04-15T02:00:06;12.80;83.50
33827;DHT22;20128;45.582;5.298;2023-04-15T02:02:34;12.90;83.80
33827;DHT22;20128;45.582;5.298;2023-04-15T02:05:00;12.90;83.30
33827;DHT22;20128;45.582;5.298;2023-04-15T02:07:26;12.80;83.10
33827;DHT22;20128;45.582;5.298;2023-04-15T02:09:53;12.80;83.30
33827;DHT22;20128;45.582;5.298;2023-04-15T02:12:18;12.80;83.50
33827;DHT22;20128;45.582;5.298;2023-04-15T02:14:44;12.80;83.80
33827;DHT22;20128;45.582;5.298;2023-04-15T02:17:10;12.70;83.80
33827;DHT22;20128;45.582;5.298;2023-04-15T02:19:36;12.70;84.00
33827;DHT22;20128;45.582;5.298;2023-04-15T02:22:01;12.70;84.00
33827;DHT22;20128;45.582;5.298;2023-04-15T02:24:29;12.70;84.00
33827;DHT22;20128;45.582;5.298;2023-04-15T02:26:55;12.70;84.00
33827;DHT22;20128;45.582;5.298;2023-04-15T02:29:20;12.50;84.00
33827;DHT22;20128;45.582;5.298;2023-04-15T02:31:47;12.50;84.10
33827;DHT22;20128;45.582;5.298;2023-04-15T02:34:13;12.50;84.30
33827;DHT22;20128;45.582;5.298;2023-04-15T02:36:39;12.60;84.90
33827;DHT22;20128;45.582;5.298;2023-04-15T02:39:05;12.60;84.90
33827;DHT22;20128;45.582;5.298;2023-04-15T02:41:31;12.70;85.10
33827;DHT22;20128;45.582;5.298;2023-04-15T02:43:56;12.70;84.80
33827;DHT22;20128;45.582;5.298;2023-04-15T02:46:22;12.70;84.40
33827;DHT22;20128;45.582;5.298;2023-04-15T02:48:49;12.70;84.50
33827;DHT22;20128;45.582;5.298;2023-04-15T02:51:19;12.70;84.20
33827;DHT22;20128;45.582;5.298;2023-04-15T02:53:49;12.80;84.50
33827;DHT22;20128;45.582;5.298;2023-04-15T02:56:15;12.80;84.30
33827;DHT22;20128;45.582;5.298;2023-04-15T02:58:42;12.80;84.70
33827;DHT22;20128;45.582;5.298;2023-04-15T03:01:09;12.90;84.80
33827;DHT22;20128;45.582;5.298;2023-04-15T03:03:35;12.80;84.00
33827;DHT22;20128;45.582;5.298;2023-04-15T03:06:00;12.60;84.00
33827;DHT22;20128;45.582;5.298;2023-04-15T03:08:26;12.50;83.80
33827;DHT22;20128;45.582;5.298;2023-04-15T03:10:52;12.50;84.10
33827;DHT22;20128;45.582;5.298;2023-04-15T03:13:19;12.40;84.10
33827;DHT22;20128;45.582;5.298;2023-04-15T03:15:48;12.40;84.10
33827;DHT22;20128;45.582;5.298;2023-04-15T03:18:13;12.30;84.30
33827;DHT22;20128;45.582;5.298;2023-04-15T03:20:39;12.20;84.50
33827;DHT22;20128;45.582;5.298;2023-04-15T03:23:05;12.10;84.90
33827;DHT22;20128;45.582;5.298;2023-04-15T03:25:30;12.00;85.10
33827;DHT22;20128;45.582;5.298;2023-04-15T03:27:56;12.00;85.20
33827;DHT22;20128;45.582;5.298;2023-04-15T03:30:22;12.10;85.30
33827;DHT22;20128;45.582;5.298;2023-04-15T03:32:48;12.10;85.60
33827;DHT22;20128;45.582;5.298;2023-04-15T03:35:14;12.20;85.70
33827;DHT22;20128;45.582;5.298;2023-04-15T03:37:40;12.20;86.00
33827;DHT22;20128;45.582;5.298;2023-04-15T03:40:06;12.30;86.10
33827;DHT22;20128;45.582;5.298;2023-04-15T03:42:32;12.40;85.90
33827;DHT22;20128;45.582;5.298;2023-04-15T03:44:58;12.50;86.10
33827;DHT22;20128;45.582;5.298;2023-04-15T03:47:23;12.50;85.70
33827;DHT22;20128;45.582;5.298;2023-04-15T03:49:49;12.50;85.80
33827;DHT22;20128;45.582;5.298;2023-04-15T03:52:14;12.60;86.30
33827;DHT22;20128;45.582;5.298;2023-04-15T03:54:40;12.70;86.20
33827;DHT22;20128;45.582;5.298;2023-04-15T03:57:06;12.70;85.40
33827;DHT22;20128;45.582;5.298;2023-04-15T03:59:31;12.70;85.00
33827;DHT22;20128;45.582;5.298;2023-04-15T04:01:58;12.70;85.00
33827;DHT22;20128;45.582;5.298;2023-04-15T04:04:23;12.60;84.70
33827;DHT22;20128;45.582;5.298;2023-04-15T04:06:49;12.50;85.00
33827;DHT22;20128;45.582;5.298;2023-04-15T04:09:15;12.50;85.60
33827;DHT22;20128;45.582;5.298;2023-04-15T04:11:41;12.50;85.70
33827;DHT22;20128;45.582;5.298;2023-04-15T04:14:06;12.50;85.60
33827;DHT22;20128;45.582;5.298;2023-04-15T04:16:32;12.50;85.80
33827;DHT22;20128;45.582;5.298;2023-04-15T04:18:57;12.50;85.80
33827;DHT22;20128;45.582;5.298;2023-04-15T04:21:23;12.50;85.70
33827;DHT22;20128;45.582;5.298;2023-04-15T04:23:49;12.50;85.30
33827;DHT22;20128;45.582;5.298;2023-04-15T04:26:15;12.30;85.20
33827;DHT22;20128;45.582;5.298;2023-04-15T04:28:40;12.20;85.40
33827;DHT22;20128;45.582;5.298;2023-04-15T04:31:06;12.10;85.60
33827;DHT22;20128;45.582;5.298;2023-04-15T04:33:32;12.00;85.90
33827;DHT22;20128;45.582;5.298;2023-04-15T04:35:58;12.00;86.10
33827;DHT22;20128;45.582;5.298;2023-04-15T04:38:24;12.10;86.30
33827;DHT22;20128;45.582;5.298;2023-04-15T04:40:49;12.10;86.20
33827;DHT22;20128;45.582;5.298;2023-04-15T04:43:15;12.00;86.10
33827;DHT22;20128;45.582;5.298;2023-04-15T04:45:41;12.00;86.10
33827;DHT22;20128;45.582;5.298;2023-04-15T04:48:07;12.00;86.30
33827;DHT22;20128;45.582;5.298;2023-04-15T04:50:34;12.00;86.40
33827;DHT22;20128;45.582;5.298;2023-04-15T04:53:01;12.00;86.80
33827;DHT22;20128;45.582;5.298;2023-04-15T04:55:26;12.10;86.70
33827;DHT22;20128;45.582;5.298;2023-04-15T04:57:52;12.10;86.60
33827;DHT22;20128;45.582;5.298;2023-04-15T05:00:18;12.20;86.60
33827;DHT22;20128;45.582;5.298;2023-04-15T05:02:44;12.10;86.60
33827;DHT22;20128;45.582;5.298;2023-04-15T05:05:10;12.10;86.80
33827;DHT22;20128;45.582;5.298;2023-04-15T05:07:36;12.00;86.70
33827;DHT22;20128;45.582;5.298;2023-04-15T05:10:03;12.00;86.90
33827;DHT22;20128;45.582;5.298;2023-04-15T05:12:29;12.00;87.10
33827;DHT22;20128;45.582;5.298;2023-04-15T05:14:54;12.00;87.70
33827;DHT22;20128;45.582;5.298;2023-04-15T05:17:20;12.00;87.80
33827;DHT22;20128;45.582;5.298;2023-04-15T05:19:46;12.00;87.80
33827;DHT22;20128;45.582;5.298;2023-04-15T05:22:11;12.10;87.60
33827;DHT22;20128;45.582;5.298;2023-04-15T05:24:37;12.10;87.30
33827;DHT22;20128;45.582;5.298;2023-04-15T05:27:03;12.10;87.20
33827;DHT22;20128;45.582;5.298;2023-04-15T05:29:29;12.20;87.60
33827;DHT22;20128;45.582;5.298;2023-04-15T05:31:55;12.20;87.60
33827;DHT22;20128;45.582;5.298;2023-04-15T05:34:21;12.10;87.50
33827;DHT22;20128;45.582;5.298;2023-04-15T05:36:46;12.10;87.20
33827;DHT22;20128;45.582;5.298;2023-04-15T05:39:12;12.10;87.80
33827;DHT22;20128;45.582;5.298;2023-04-15T05:41:38;12.20;87.80
33827;DHT22;20128;45.582;5.298;2023-04-15T05:44:03;12.20;87.00
33827;DHT22;20128;45.582;5.298;2023-04-15T05:46:29;12.10;86.30
33827;DHT22;20128;45.582;5.298;2023-04-15T05:48:55;12.00;86.70
33827;DHT22;20128;45.582;5.298;2023-04-15T05:51:21;12.00;87.20
33827;DHT22;20128;45.582;5.298;2023-04-15T05:53:46;12.10;87.30
33827;DHT22;20128;45.582;5.298;2023-04-15T05:56:12;12.10;87.30
33827;DHT22;20128;45.582;5.298;2023-04-15T05:58:37;12.20;87.00
33827;DHT22;20128;45.582;5.298;2023-04-15T06:01:03;12.30;87.10
33827;DHT22;20128;45.582;5.298;2023-04-15T06:03:30;12.30;87.00
33827;DHT22;20128;45.582;5.298;2023-04-15T06:05:55;12.40;86.90
33827;DHT22;20128;45.582;5.298;2023-04-15T06:08:21;12.40;87.00
33827;DHT22;20128;45.582;5.298;2023-04-15T06:10:46;12.40;86.40
33827;DHT22;20128;45.582;5.298;2023-04-15T06:13:12;12.40;86.50
33827;DHT22;20128;45.582;5.298;2023-04-15T06:15:38;12.50;86.20
33827;DHT22;20128;45.582;5.298;2023-04-15T06:18:03;12.50;86.20
33827;DHT22;20128;45.582;5.298;2023-04-15T06:20:29;12.60;85.80
33827;DHT22;20128;45.582;5.298;2023-04-15T06:22:55;12.60;85.40
33827;DHT22;20128;45.582;5.298;2023-04-15T06:25:21;12.50;84.80
33827;DHT22;20128;45.582;5.298;2023-04-15T06:27:47;12.50;84.30
33827;DHT22;20128;45.582;5.298;2023-04-15T06:30:13;12.40;84.40
33827;DHT22;20128;45.582;5.298;2023-04-15T06:32:38;12.30;84.50
33827;DHT22;20128;45.582;5.298;2023-04-15T06:35:04;12.30;84.80
33827;DHT22;20128;45.582;5.298;2023-04-15T06:37:30;12.20;84.80
33827;DHT22;20128;45.582;5.298;2023-04-15T06:39:57;12.20;85.50
33827;DHT22;20128;45.582;5.298;2023-04-15T06:42:22;12.20;84.70
33827;DHT22;20128;45.582;5.298;2023-04-15T06:44:48;12.10;84.50
33827;DHT22;20128;45.582;5.298;2023-04-15T06:47:14;12.10;84.90
33827;DHT22;20128;45.582;5.298;2023-04-15T06:49:40;12.10;84.90
33827;DHT22;20128;45.582;5.298;2023-04-15T06:52:07;12.10;83.90
33827;DHT22;20128;45.582;5.298;2023-04-15T06:54:33;12.10;84.40
33827;DHT22;20128;45.582;5.298;2023-04-15T06:56:58;12.10;84.70
33827;DHT22;20128;45.582;5.298;2023-04-15T06:59:24;12.10;81.60
33827;DHT22;20128;45.582;5.298;2023-04-15T07:01:50;12.10;81.90
33827;DHT22;20128;45.582;5.298;2023-04-15T07:04:16;12.00;82.10
33827;DHT22;20128;45.582;5.298;2023-04-15T07:06:42;12.00;80.20
33827;DHT22;20128;45.582;5.298;2023-04-15T07:09:07;12.00;80.20
33827;DHT22;20128;45.582;5.298;2023-04-15T07:11:33;11.90;79.50
33827;DHT22;20128;45.582;5.298;2023-04-15T07:13:59;11.90;79.30
33827;DHT22;20128;45.582;5.298;2023-04-15T07:16:25;11.90;79.80
33827;DHT22;20128;45.582;5.298;2023-04-15T07:18:50;11.90;78.50
33827;DHT22;20128;45.582;5.298;2023-04-15T07:21:16;11.90;79.10
33827;DHT22;20128;45.582;5.298;2023-04-15T07:23:42;11.90;77.80
33827;DHT22;20128;45.582;5.298;2023-04-15T07:26:08;11.80;78.10
33827;DHT22;20128;45.582;5.298;2023-04-15T07:28:33;11.80;78.60
33827;DHT22;20128;45.582;5.298;2023-04-15T07:30:59;11.80;78.40
33827;DHT22;20128;45.582;5.298;2023-04-15T07:33:25;11.80;78.30
33827;DHT22;20128;45.582;5.298;2023-04-15T07:35:51;11.80;78.30
33827;DHT22;20128;45.582;5.298;2023-04-15T07:38:16;11.80;77.30
33827;DHT22;20128;45.582;5.298;2023-04-15T07:40:42;11.80;78.50
33827;DHT22;20128;45.582;5.298;2023-04-15T07:43:08;11.80;78.90
33827;DHT22;20128;45.582;5.298;2023-04-15T07:45:34;11.80;78.40
33827;DHT22;20128;45.582;5.298;2023-04-15T07:48:00;11.90;78.80
33827;DHT22;20128;45.582;5.298;2023-04-15T07:50:27;11.90;78.70
33827;DHT22;20128;45.582;5.298;2023-04-15T07:52:54;11.90;77.90
33827;DHT22;20128;45.582;5.298;2023-04-15T07:55:20;11.90;78.10
33827;DHT22;20128;45.582;5.298;2023-04-15T07:57:47;11.90;78.30
33827;DHT22;20128;45.582;5.298;2023-04-15T08:00:14;11.90;78.10
33827;DHT22;20128;45.582;5.298;2023-04-15T08:02:41;11.90;78.30
33827;DHT22;20128;45.582;5.298;2023-04-15T08:05:08;11.90;78.50
33827;DHT22;20128;45.582;5.298;2023-04-15T08:07:34;12.00;78.70
33827;DHT22;20128;45.582;5.298;2023-04-15T08:09:59;12.00;78.50
33827;DHT22;20128;45.582;5.298;2023-04-15T08:12:25;12.00;78.40
33827;DHT22;20128;45.582;5.298;2023-04-15T08:14:51;12.10;78.20
33827;DHT22;20128;45.582;5.298;2023-04-15T08:17:17;12.10;76.60
33827;DHT22;20128;45.582;5.298;2023-04-15T08:19:42;12.10;76.70
33827;DHT22;20128;45.582;5.298;2023-04-15T08:22:09;12.10;77.00
33827;DHT22;20128;45.582;5.298;2023-04-15T08:24:36;12.00;76.20
33827;DHT22;20128;45.582;5.298;2023-04-15T08:27:03;12.00;76.30
33827;DHT22;20128;45.582;5.298;2023-04-15T08:29:29;11.90;76.40
33827;DHT22;20128;45.582;5.298;2023-04-15T08:31:54;11.90;75.10
33827;DHT22;20128;45.582;5.298;2023-04-15T08:34:20;11.80;75.20
33827;DHT22;20128;45.582;5.298;2023-04-15T08:36:46;11.70;74.80
33827;DHT22;20128;45.582;5.298;2023-04-15T08:39:11;11.60;74.60
33827;DHT22;20128;45.582;5.298;2023-04-15T08:41:45;11.60;74.90
33827;DHT22;20128;45.582;5.298;2023-04-15T08:44:14;11.60;75.30
33827;DHT22;20128;45.582;5.298;2023-04-15T08:46:40;11.50;75.20
33827;DHT22;20128;45.582;5.298;2023-04-15T08:49:10;11.50;75.70
33827;DHT22;20128;45.582;5.298;2023-04-15T08:51:39;11.50;75.60
33827;DHT22;20128;45.582;5.298;2023-04-15T08:54:07;11.50;75.80
33827;DHT22;20128;45.582;5.298;2023-04-15T08:56:33;11.50;75.90
33827;DHT22;20128;45.582;5.298;2023-04-15T08:59:00;11.60;76.00
33827;DHT22;20128;45.582;5.298;2023-04-15T09:01:26;11.60;75.70
33827;DHT22;20128;45.582;5.298;2023-04-15T09:03:52;11.70;75.80
33827;DHT22;20128;45.582;5.298;2023-04-15T09:06:21;11.80;76.40
33827;DHT22;20128;45.582;5.298;2023-04-15T09:08:47;11.80;74.90
33827;DHT22;20128;45.582;5.298;2023-04-15T09:11:13;11.70;74.90
33827;DHT22;20128;45.582;5.298;2023-04-15T09:13:39;11.60;75.40
33827;DHT22;20128;45.582;5.298;2023-04-15T09:16:05;11.60;76.00
33827;DHT22;20128;45.582;5.298;2023-04-15T09:18:35;11.60;77.50
33827;DHT22;20128;45.582;5.298;2023-04-15T09:21:19;11.70;76.00
33827;DHT22;20128;45.582;5.298;2023-04-15T09:23:55;11.70;75.40
33827;DHT22;20128;45.582;5.298;2023-04-15T09:26:36;11.70;75.20
33827;DHT22;20128;45.582;5.298;2023-04-15T09:29:04;11.80;76.60
33827;DHT22;20128;45.582;5.298;2023-04-15T09:31:31;11.80;75.90
33827;DHT22;20128;45.582;5.298;2023-04-15T09:33:57;11.90;76.10
33827;DHT22;20128;45.582;5.298;2023-04-15T09:36:23;11.90;75.10
33827;DHT22;20128;45.582;5.298;2023-04-15T09:38:59;11.90;74.50
33827;DHT22;20128;45.582;5.298;2023-04-15T09:41:25;11.90;73.90
33827;DHT22;20128;45.582;5.298;2023-04-15T09:43:51;11.90;73.30
33827;DHT22;20128;45.582;5.298;2023-04-15T09:46:17;11.90;72.60
33827;DHT22;20128;45.582;5.298;2023-04-15T09:48:43;11.90;73.40
33827;DHT22;20128;45.582;5.298;2023-04-15T09:51:09;11.90;71.40
33827;DHT22;20128;45.582;5.298;2023-04-15T09:53:35;11.90;72.40
33827;DHT22;20128;45.582;5.298;2023-04-15T09:56:03;11.90;72.20
33827;DHT22;20128;45.582;5.298;2023-04-15T09:58:33;11.90;72.40
33827;DHT22;20128;45.582;5.298;2023-04-15T10:01:01;11.90;73.20
33827;DHT22;20128;45.582;5.298;2023-04-15T10:03:29;11.90;73.40
33827;DHT22;20128;45.582;5.298;2023-04-15T10:05:57;12.10;73.00
33827;DHT22;20128;45.582;5.298;2023-04-15T10:08:28;12.10;73.50
33827;DHT22;20128;45.582;5.298;2023-04-15T10:10:54;12.20;73.30
33827;DHT22;20128;45.582;5.298;2023-04-15T10:13:25;12.20;73.20
33827;DHT22;20128;45.582;5.298;2023-04-15T10:18:24;12.40;73.00
33827;DHT22;20128;45.582;5.298;2023-04-15T10:20:50;12.40;72.00
33827;DHT22;20128;45.582;5.298;2023-04-15T10:23:17;12.50;71.40
33827;DHT22;20128;45.582;5.298;2023-04-15T10:25:44;12.40;70.90
33827;DHT22;20128;45.582;5.298;2023-04-15T10:28:10;12.40;71.60
33827;DHT22;20128;45.582;5.298;2023-04-15T10:30:37;12.30;72.70
33827;DHT22;20128;45.582;5.298;2023-04-15T10:33:03;12.30;73.50
33827;DHT22;20128;45.582;5.298;2023-04-15T10:35:31;12.40;74.80
33827;DHT22;20128;45.582;5.298;2023-04-15T10:37:57;12.30;74.50
33827;DHT22;20128;45.582;5.298;2023-04-15T10:40:24;12.30;74.50
33827;DHT22;20128;45.582;5.298;2023-04-15T10:42:54;12.30;75.00
33827;DHT22;20128;45.582;5.298;2023-04-15T10:45:21;12.20;74.90
33827;DHT22;20128;45.582;5.298;2023-04-15T10:47:54;12.30;75.00
33827;DHT22;20128;45.582;5.298;2023-04-15T10:50:21;12.30;75.30
33827;DHT22;20128;45.582;5.298;2023-04-15T10:52:50;12.30;74.60
33827;DHT22;20128;45.582;5.298;2023-04-15T10:55:25;12.20;74.30
33827;DHT22;20128;45.582;5.298;2023-04-15T10:57:52;12.20;73.80
33827;DHT22;20128;45.582;5.298;2023-04-15T11:00:20;12.10;73.80
33827;DHT22;20128;45.582;5.298;2023-04-15T11:03:08;12.10;74.20
33827;DHT22;20128;45.582;5.298;2023-04-15T11:08:09;11.90;73.40
33827;DHT22;20128;45.582;5.298;2023-04-15T11:13:14;11.80;75.30
33827;DHT22;20128;45.582;5.298;2023-04-15T11:15:45;11.80;76.00
33827;DHT22;20128;45.582;5.298;2023-04-15T11:18:23;11.70;76.10
33827;DHT22;20128;45.582;5.298;2023-04-15T11:20:54;11.70;75.40
33827;DHT22;20128;45.582;5.298;2023-04-15T11:23:33;11.80;75.50
33827;DHT22;20128;45.582;5.298;2023-04-15T11:26:01;11.80;77.40
33827;DHT22;20128;45.582;5.298;2023-04-15T11:28:28;11.90;77.60
33827;DHT22;20128;45.582;5.298;2023-04-15T11:30:55;12.00;76.60
33827;DHT22;20128;45.582;5.298;2023-04-15T11:33:21;12.00;75.60
33827;DHT22;20128;45.582;5.298;2023-04-15T11:35:47;12.10;73.90
33827;DHT22;20128;45.582;5.298;2023-04-15T11:38:13;12.10;74.30
33827;DHT22;20128;45.582;5.298;2023-04-15T11:40:40;12.10;73.40
33827;DHT22;20128;45.582;5.298;2023-04-15T11:43:09;12.10;71.90
33827;DHT22;20128;45.582;5.298;2023-04-15T11:45:37;12.10;73.00
33827;DHT22;20128;45.582;5.298;2023-04-15T11:48:12;12.00;73.40
33827;DHT22;20128;45.582;5.298;2023-04-15T11:50:39;11.90;74.60
33827;DHT22;20128;45.582;5.298;2023-04-15T11:53:09;11.90;75.40
33827;DHT22;20128;45.582;5.298;2023-04-15T11:55:46;11.90;75.70
33827;DHT22;20128;45.582;5.298;2023-04-15T11:58:14;11.90;74.40
33827;DHT22;20128;45.582;5.298;2023-04-15T12:00:51;11.90;75.20
33827;DHT22;20128;45.582;5.298;2023-04-15T12:03:24;11.80;75.60
33827;DHT22;20128;45.582;5.298;2023-04-15T12:16:23;12.00;75.80
33827;DHT22;20128;45.582;5.298;2023-04-15T12:18:53;12.00;75.10
33827;DHT22;20128;45.582;5.298;2023-04-15T12:21:22;11.90;75.20
33827;DHT22;20128;45.582;5.298;2023-04-15T12:23:49;11.90;75.80
33827;DHT22;20128;45.582;5.298;2023-04-15T12:26:15;11.90;76.40
33827;DHT22;20128;45.582;5.298;2023-04-15T12:28:41;11.80;76.40
33827;DHT22;20128;45.582;5.298;2023-04-15T12:31:09;11.90;75.90
33827;DHT22;20128;45.582;5.298;2023-04-15T12:33:34;11.90;76.60
33827;DHT22;20128;45.582;5.298;2023-04-15T12:36:00;11.90;76.60
33827;DHT22;20128;45.582;5.298;2023-04-15T12:38:26;11.90;76.40
33827;DHT22;20128;45.582;5.298;2023-04-15T12:40:53;12.00;76.90
33827;DHT22;20128;45.582;5.298;2023-04-15T12:43:18;12.00;76.30
33827;DHT22;20128;45.582;5.298;2023-04-15T12:45:44;12.00;75.40
33827;DHT22;20128;45.582;5.298;2023-04-15T12:48:10;12.00;75.90
33827;DHT22;20128;45.582;5.298;2023-04-15T12:50:35;12.00;75.40
33827;DHT22;20128;45.582;5.298;2023-04-15T12:53:02;12.00;74.90
33827;DHT22;20128;45.582;5.298;2023-04-15T12:55:28;11.90;75.00
33827;DHT22;20128;45.582;5.298;2023-04-15T12:57:58;11.80;74.40
33827;DHT22;20128;45.582;5.298;2023-04-15T13:00:23;11.70;75.00
33827;DHT22;20128;45.582;5.298;2023-04-15T13:02:49;11.60;75.40
33827;DHT22;20128;45.582;5.298;2023-04-15T13:05:14;11.60;75.80
33827;DHT22;20128;45.582;5.298;2023-04-15T13:07:41;11.70;76.10
33827;DHT22;20128;45.582;5.298;2023-04-15T13:10:07;11.70;76.30
33827;DHT22;20128;45.582;5.298;2023-04-15T13:12:33;11.80;76.20
33827;DHT22;20128;45.582;5.298;2023-04-15T13:15:03;11.80;74.90
33827;DHT22;20128;45.582;5.298;2023-04-15T13:17:29;11.70;74.90
33827;DHT22;20128;45.582;5.298;2023-04-15T13:19:55;11.70;74.10
33827;DHT22;20128;45.582;5.298;2023-04-15T13:22:20;11.70;74.10
33827;DHT22;20128;45.582;5.298;2023-04-15T13:24:46;11.70;74.30
33827;DHT22;20128;45.582;5.298;2023-04-15T13:27:11;11.70;74.20
33827;DHT22;20128;45.582;5.298;2023-04-15T13:29:37;11.70;73.60
33827;DHT22;20128;45.582;5.298;2023-04-15T13:32:05;11.70;73.80
33827;DHT22;20128;45.582;5.298;2023-04-15T13:34:31;11.70;75.20
33827;DHT22;20128;45.582;5.298;2023-04-15T13:36:56;11.70;75.30
33827;DHT22;20128;45.582;5.298;2023-04-15T13:39:22;11.70;75.60
33827;DHT22;20128;45.582;5.298;2023-04-15T13:41:48;11.80;75.70
33827;DHT22;20128;45.582;5.298;2023-04-15T13:44:14;11.80;75.90
33827;DHT22;20128;45.582;5.298;2023-04-15T13:46:40;11.80;76.50
33827;DHT22;20128;45.582;5.298;2023-04-15T13:49:08;11.80;76.80
33827;DHT22;20128;45.582;5.298;2023-04-15T13:51:34;11.80;76.80
33827;DHT22;20128;45.582;5.298;2023-04-15T13:54:01;11.80;77.10
33827;DHT22;20128;45.582;5.298;2023-04-15T13:56:28;11.70;77.40
33827;DHT22;20128;45.582;5.298;2023-04-15T13:58:53;11.70;77.50
33827;DHT22;20128;45.582;5.298;2023-04-15T14:01:23;11.80;78.10
33827;DHT22;20128;45.582;5.298;2023-04-15T14:03:49;11.70;77.30
33827;DHT22;20128;45.582;5.298;2023-04-15T14:06:14;11.70;78.70
33827;DHT22;20128;45.582;5.298;2023-04-15T14:08:40;11.70;77.40
33827;DHT22;20128;45.582;5.298;2023-04-15T14:11:06;11.60;77.50
33827;DHT22;20128;45.582;5.298;2023-04-15T14:13:31;11.60;77.50
33827;DHT22;20128;45.582;5.298;2023-04-15T14:15:57;11.60;77.40
33827;DHT22;20128;45.582;5.298;2023-04-15T14:18:23;11.60;77.30
33827;DHT22;20128;45.582;5.298;2023-04-15T14:20:48;11.60;77.40
33827;DHT22;20128;45.582;5.298;2023-04-15T14:23:14;11.60;77.50
33827;DHT22;20128;45.582;5.298;2023-04-15T14:25:40;11.60;77.40
33827;DHT22;20128;45.582;5.298;2023-04-15T14:28:05;11.50;77.40
33827;DHT22;20128;45.582;5.298;2023-04-15T14:30:31;11.60;77.30
33827;DHT22;20128;45.582;5.298;2023-04-15T14:32:57;11.60;77.20
33827;DHT22;20128;45.582;5.298;2023-04-15T14:35:22;11.60;76.20
33827;DHT22;20128;45.582;5.298;2023-04-15T14:37:51;11.60;75.80
33827;DHT22;20128;45.582;5.298;2023-04-15T14:40:18;11.50;75.00
33827;DHT22;20128;45.582;5.298;2023-04-15T14:42:44;11.50;75.20
33827;DHT22;20128;45.582;5.298;2023-04-15T14:45:10;11.50;75.60
33827;DHT22;20128;45.582;5.298;2023-04-15T14:47:35;11.50;75.50
33827;DHT22;20128;45.582;5.298;2023-04-15T14:50:01;11.50;76.10
33827;DHT22;20128;45.582;5.298;2023-04-15T14:52:29;11.60;76.00
33827;DHT22;20128;45.582;5.298;2023-04-15T14:54:55;11.60;74.80
33827;DHT22;20128;45.582;5.298;2023-04-15T14:57:20;11.60;74.80
33827;DHT22;20128;45.582;5.298;2023-04-15T14:59:46;11.60;74.80
33827;DHT22;20128;45.582;5.298;2023-04-15T15:02:12;11.60;75.30
33827;DHT22;20128;45.582;5.298;2023-04-15T15:04:38;11.60;75.10
33827;DHT22;20128;45.582;5.298;2023-04-15T15:07:05;11.60;74.00
33827;DHT22;20128;45.582;5.298;2023-04-15T15:09:31;11.60;74.70
33827;DHT22;20128;45.582;5.298;2023-04-15T15:11:56;11.60;74.90
33827;DHT22;20128;45.582;5.298;2023-04-15T15:14:22;11.60;75.10
33827;DHT22;20128;45.582;5.298;2023-04-15T15:16:48;11.60;75.00
33827;DHT22;20128;45.582;5.298;2023-04-15T15:19:13;11.50;75.80
33827;DHT22;20128;45.582;5.298;2023-04-15T15:21:39;11.50;76.60
33827;DHT22;20128;45.582;5.298;2023-04-15T15:24:05;11.50;76.80
33827;DHT22;20128;45.582;5.298;2023-04-15T15:26:30;11.50;77.30
33827;DHT22;20128;45.582;5.298;2023-04-15T15:28:56;11.40;77.80
33827;DHT22;20128;45.582;5.298;2023-04-15T15:31:22;11.40;78.30
33827;DHT22;20128;45.582;5.298;2023-04-15T15:33:47;11.40;78.40
33827;DHT22;20128;45.582;5.298;2023-04-15T15:36:13;11.40;78.00
33827;DHT22;20128;45.582;5.298;2023-04-15T15:38:40;11.40;78.60
33827;DHT22;20128;45.582;5.298;2023-04-15T15:41:06;11.40;78.10
33827;DHT22;20128;45.582;5.298;2023-04-15T15:43:31;11.30;78.10